Yoder, Indiana
Current Conditions -  °F | °C
As of 4:54 PM on Wednesday 22 Oct 2014 (Local Time) from KFWA Reporting Station
Scattered Clouds Scattered Clouds  
Wind Chill: 51°   Ceiling: Unl
Heat Index: 51°   Visibility: 10mi
Dew Point: 41°   Wind: 7mph
Humidity: 68%   Direction: 70°ENE
Pressure: 30.3"   Gusts: NA
Location:  40.93°N, 85.18°W
Report Text: KFWA 222054Z 07006KT 10SM SCT024 SCT200 11/05 A3030 RMK AO2 SLP266 T01060050 56010
Loading
Personal Weather Stations






























Interactive Weather Map
Tropical Storm Tracking
New forecast layout! Learn more

10-Day Weather Forecast

Advertisements
Track Severe Weather on mobile